Time;durP1;ratioP1;P1;durP2;ratioP2;P2;SDS_P1;SDS_P2;PMS_P1;PMS_P2;Temp;Humidity;BMP_temperature;BMP_pressure;BME280_temperature;BME280_humidity;BME280_pressure;Samples;Min_cycle;Max_cycle;Signal;HPM_P1;HPM_P2
2021/04/25 00:00:59;;;;;;;7.37;5.40;;;9.60;69.30;;;;;;5052588;28;20389;-78
2021/04/25 00:03:25;;;;;;;9.87;5.40;;;9.60;69.40;;;;;;5052540;28;20482;-78
2021/04/25 00:05:51;;;;;;;6.43;5.43;;;9.60;69.20;;;;;;5034700;28;20170;-78
2021/04/25 00:08:16;;;;;;;6.97;5.17;;;9.50;69.40;;;;;;5052932;28;20206;-78
2021/04/25 00:10:42;;;;;;;8.67;5.33;;;9.50;70.00;;;;;;5052593;28;20485;-78
2021/04/25 00:13:09;;;;;;;5.03;4.20;;;9.50;70.10;;;;;;5053086;28;20174;-77
2021/04/25 00:15:35;;;;;;;5.83;5.23;;;9.40;69.30;;;;;;5018802;28;20761;-77
2021/04/25 00:18:01;;;;;;;7.07;5.00;;;9.50;69.60;;;;;;5051915;28;20399;-78
2021/04/25 00:20:27;;;;;;;6.87;5.03;;;9.50;69.30;;;;;;5052659;28;20766;-78
2021/04/25 00:22:53;;;;;;;11.47;5.40;;;9.60;70.20;;;;;;5051770;28;20261;-78
2021/04/25 00:25:19;;;;;;;5.63;4.70;;;9.60;69.80;;;;;;5053120;28;20248;-78
2021/04/25 00:27:45;;;;;;;5.47;4.97;;;9.60;69.00;;;;;;5051260;28;20550;-77
2021/04/25 00:30:15;;;;;;;4.90;4.50;;;9.70;68.40;;;;;;5052496;28;20820;-78
2021/04/25 00:32:41;;;;;;;5.73;4.90;;;9.70;67.80;;;;;;5052333;28;20494;-78
2021/04/25 00:35:08;;;;;;;5.17;4.60;;;9.70;67.80;;;;;;5052692;28;20409;-78
2021/04/25 00:37:34;;;;;;;6.27;5.00;;;9.70;68.00;;;;;;5052137;28;20531;-79
2021/04/25 00:39:59;;;;;;;9.77;4.73;;;9.60;67.80;;;;;;5051467;28;20519;-78
2021/04/25 00:42:25;;;;;;;4.53;4.00;;;9.60;67.10;;;;;;5052810;28;20662;-78
2021/04/25 00:44:52;;;;;;;5.40;4.30;;;9.60;67.00;;;;;;5052416;28;20189;-78
2021/04/25 00:47:17;;;;;;;5.50;4.50;;;9.50;66.90;;;;;;5052465;28;20422;-78
2021/04/25 00:49:43;;;;;;;5.03;4.30;;;9.50;66.70;;;;;;5052146;28;20467;-78
2021/04/25 00:52:09;;;;;;;4.57;4.17;;;9.30;66.10;;;;;;5052426;28;20181;-78
2021/04/25 00:54:36;;;;;;;7.03;5.27;;;9.10;67.00;;;;;;5051648;28;20236;-78
2021/04/25 00:57:03;;;;;;;5.60;4.67;;;9.20;67.60;;;;;;5051591;28;20424;-78
2021/04/25 00:59:29;;;;;;;4.90;4.50;;;9.10;67.30;;;;;;5052332;28;20416;-78
2021/04/25 01:01:55;;;;;;;7.63;4.00;;;9.10;67.50;;;;;;5051261;28;20394;-78
2021/04/25 01:04:21;;;;;;;6.37;4.77;;;9.10;67.50;;;;;;5034433;28;20542;-78
2021/04/25 01:06:47;;;;;;;5.17;4.67;;;9.10;67.50;;;;;;5051255;28;20473;-78
2021/04/25 01:09:13;;;;;;;5.20;4.33;;;9.10;67.90;;;;;;5052135;28;20456;-78
2021/04/25 01:11:39;;;;;;;6.10;4.17;;;9.00;68.00;;;;;;5051939;28;20961;-78
2021/04/25 01:14:05;;;;;;;4.93;4.37;;;9.00;68.90;;;;;;5050876;28;20428;-78
2021/04/25 01:16:31;;;;;;;5.10;4.60;;;9.00;69.80;;;;;;5051848;28;20926;-78
2021/04/25 01:18:57;;;;;;;4.83;4.33;;;9.00;69.80;;;;;;5051343;28;20189;-77
2021/04/25 01:21:22;;;;;;;4.83;4.43;;;9.00;69.60;;;;;;5052020;28;20173;-78
2021/04/25 01:23:49;;;;;;;4.80;4.40;;;8.90;69.50;;;;;;5050359;28;20213;-78
2021/04/25 01:26:15;;;;;;;4.93;4.33;;;8.90;70.20;;;;;;5051758;28;20199;-79
2021/04/25 01:28:41;;;;;;;4.93;4.43;;;8.80;70.00;;;;;;5051585;28;20467;-78
2021/04/25 01:31:07;;;;;;;6.40;4.43;;;8.80;70.50;;;;;;5050988;28;20746;-78
2021/04/25 01:33:33;;;;;;;6.10;4.57;;;8.80;70.30;;;;;;5051841;28;20386;-78
2021/04/25 01:36:00;;;;;;;4.93;4.43;;;8.70;70.90;;;;;;5051159;28;20390;-78
2021/04/25 01:38:26;;;;;;;4.97;4.63;;;8.60;71.20;;;;;;5051788;28;20447;-78
2021/04/25 01:40:52;;;;;;;8.13;5.10;;;8.60;71.30;;;;;;5051096;28;20931;-77
2021/04/25 01:43:18;;;;;;;8.07;4.27;;;8.50;71.10;;;;;;5051883;28;20184;-78
2021/04/25 01:45:43;;;;;;;5.97;4.33;;;8.50;71.50;;;;;;5051870;28;20219;-78
2021/04/25 01:48:10;;;;;;;7.50;4.47;;;8.50;71.50;;;;;;5033449;28;20235;-78
2021/04/25 01:50:36;;;;;;;5.07;4.67;;;8.40;71.50;;;;;;5051853;28;20747;-78
2021/04/25 01:53:03;;;;;;;6.40;4.90;;;8.40;72.80;;;;;;5051020;28;20861;-78
2021/04/25 01:55:31;;;;;;;6.03;5.20;;;8.30;72.10;;;;;;5051727;28;20423;-78
2021/04/25 01:57:59;;;;;;;5.00;4.40;;;8.30;72.30;;;;;;5050935;28;20408;-77
2021/04/25 02:00:36;;;;;;;5.27;4.47;;;8.30;72.40;;;;;;5051399;28;20965;-78
2021/04/25 02:03:03;;;;;;;5.83;4.27;;;8.20;72.80;;;;;;5050872;28;20739;-78
2021/04/25 02:05:29;;;;;;;5.33;4.83;;;8.20;73.40;;;;;;5051652;28;20506;-78
2021/04/25 02:07:55;;;;;;;5.13;4.60;;;8.20;72.90;;;;;;5051138;28;20397;-78
2021/04/25 02:10:22;;;;;;;5.20;4.70;;;8.10;73.30;;;;;;5051564;28;20399;-78
2021/04/25 02:12:49;;;;;;;4.90;4.40;;;8.10;73.30;;;;;;5050854;28;20172;-77
2021/04/25 02:15:15;;;;;;;7.00;4.97;;;8.10;73.90;;;;;;5051677;28;20412;-78
2021/04/25 02:17:42;;;;;;;6.30;4.60;;;8.00;74.10;;;;;;5051255;28;20469;-78
2021/04/25 02:20:12;;;;;;;6.43;4.60;;;8.00;74.80;;;;;;5050479;28;21067;-78
2021/04/25 02:22:38;;;;;;;5.30;4.87;;;7.90;75.10;;;;;;5051480;28;20749;-78
2021/04/25 02:25:05;;;;;;;6.93;5.57;;;7.90;75.70;;;;;;5050637;28;20445;-78
2021/04/25 02:27:32;;;;;;;6.47;5.23;;;7.90;75.80;;;;;;5036459;28;20825;-79
2021/04/25 02:29:57;;;;;;;6.90;5.43;;;8.00;76.20;;;;;;5036360;28;20429;-78
2021/04/25 02:32:23;;;;;;;11.03;5.23;;;7.90;76.20;;;;;;5054901;28;20396;-78
2021/04/25 02:34:49;;;;;;;7.27;5.57;;;7.90;76.70;;;;;;5054497;28;20242;-78
2021/04/25 02:37:15;;;;;;;5.20;4.70;;;7.90;77.00;;;;;;5054724;28;20382;-78
2021/04/25 02:39:41;;;;;;;7.67;5.17;;;7.90;77.50;;;;;;5054843;28;20242;-79
2021/04/25 02:42:07;;;;;;;8.70;5.20;;;7.90;78.10;;;;;;5054056;28;21270;-78
2021/04/25 02:44:32;;;;;;;8.90;5.50;;;7.90;79.20;;;;;;5054527;28;20652;-78
2021/04/25 02:46:58;;;;;;;6.50;5.17;;;8.00;79.80;;;;;;5053974;28;20611;-78
2021/04/25 02:49:24;;;;;;;6.33;5.40;;;8.10;79.20;;;;;;5036838;28;20258;-78
2021/04/25 02:51:50;;;;;;;5.83;5.03;;;8.00;79.10;;;;;;5054162;28;20446;-78
2021/04/25 02:54:16;;;;;;;5.40;4.83;;;8.10;79.20;;;;;;5054226;28;20426;-78
2021/04/25 02:56:41;;;;;;;6.63;5.50;;;8.10;78.90;;;;;;5054525;28;20228;-78
2021/04/25 02:59:07;;;;;;;9.43;5.40;;;8.10;78.90;;;;;;5053446;28;20176;-78
2021/04/25 03:01:33;;;;;;;5.23;4.73;;;8.20;77.90;;;;;;5054701;28;20266;-78
2021/04/25 03:03:58;;;;;;;9.40;5.30;;;8.20;77.70;;;;;;5035934;28;20200;-78
2021/04/25 03:06:24;;;;;;;8.90;5.90;;;8.30;77.50;;;;;;5054241;28;20172;-78
2021/04/25 03:08:50;;;;;;;7.60;5.90;;;8.30;77.00;;;;;;5054101;28;20608;-78
2021/04/25 03:11:16;;;;;;;7.67;5.73;;;8.30;76.50;;;;;;5053894;28;20187;-78
2021/04/25 03:13:41;;;;;;;5.70;5.20;;;8.20;76.60;;;;;;5054299;28;20256;-78
2021/04/25 03:16:07;;;;;;;8.83;5.30;;;8.20;76.70;;;;;;5053438;28;20424;-78
2021/04/25 03:18:33;;;;;;;8.00;5.53;;;8.20;76.30;;;;;;5054206;28;20180;-78
2021/04/25 03:20:58;;;;;;;5.87;4.77;;;8.20;76.80;;;;;;5053383;28;20706;-78
2021/04/25 03:23:24;;;;;;;9.00;5.47;;;8.20;76.80;;;;;;5053827;28;20283;-78
2021/04/25 03:25:50;;;;;;;8.13;5.40;;;8.20;76.80;;;;;;5053866;28;20177;-78
2021/04/25 03:28:16;;;;;;;5.20;4.70;;;8.30;76.60;;;;;;5053425;28;20213;-79
2021/04/25 03:30:41;;;;;;;6.90;5.23;;;8.20;76.20;;;;;;5053719;28;20217;-78
2021/04/25 03:33:07;;;;;;;9.03;5.57;;;8.30;76.50;;;;;;5053102;28;20177;-78
2021/04/25 03:35:33;;;;;;;5.63;5.13;;;8.30;76.70;;;;;;5053914;28;20181;-78
2021/04/25 03:37:59;;;;;;;5.57;5.07;;;8.40;76.90;;;;;;5051973;28;20386;-78
2021/04/25 03:40:25;;;;;;;9.40;5.30;;;8.40;77.00;;;;;;5053706;28;20856;-78
2021/04/25 03:42:51;;;;;;;10.10;5.57;;;8.40;76.80;;;;;;5053525;28;20416;-77
2021/04/25 03:45:18;;;;;;;7.03;5.77;;;8.40;76.60;;;;;;5053388;28;20397;-78
2021/04/25 03:47:50;;;;;;;7.97;5.90;;;8.30;76.40;;;;;;5053487;28;20173;-79
2021/04/25 03:50:19;;;;;;;8.60;5.47;;;8.40;77.40;;;;;;5052930;28;20426;-78
2021/04/25 03:52:46;;;;;;;7.03;5.73;;;8.40;78.00;;;;;;5053207;28;20846;-78
2021/04/25 03:55:13;;;;;;;7.00;5.83;;;8.40;77.90;;;;;;5052642;28;20416;-79
2021/04/25 03:57:38;;;;;;;10.07;6.03;;;8.30;77.00;;;;;;5053336;28;20400;-79
2021/04/25 04:00:07;;;;;;;8.97;6.17;;;8.20;77.00;;;;;;5052617;28;20728;-78
2021/04/25 04:02:33;;;;;;;10.60;6.60;;;8.20;77.40;;;;;;5053368;28;20604;-78
2021/04/25 04:04:58;;;;;;;7.17;6.00;;;8.20;78.00;;;;;;5052288;28;20407;-78
2021/04/25 04:07:24;;;;;;;7.20;5.60;;;8.20;78.00;;;;;;5053321;28;20383;-78
2021/04/25 04:09:50;;;;;;;8.87;6.00;;;8.20;78.20;;;;;;5053117;28;20204;-78
2021/04/25 04:12:15;;;;;;;9.10;6.20;;;8.30;79.40;;;;;;5052408;28;20178;-81
2021/04/25 04:14:42;;;;;;;11.10;7.23;;;8.30;79.10;;;;;;5053107;28;20174;-83
2021/04/25 04:17:08;;;;;;;6.90;6.00;;;8.30;79.60;;;;;;5052256;28;20184;-79
2021/04/25 04:19:34;;;;;;;10.80;6.80;;;8.30;79.50;;;;;;5053196;28;20415;-80
2021/04/25 04:22:00;;;;;;;7.87;6.60;;;8.40;79.80;;;;;;5052246;28;20497;-80
2021/04/25 04:24:25;;;;;;;8.63;6.07;;;8.30;79.90;;;;;;5052666;28;20209;-80
2021/04/25 04:26:51;;;;;;;6.70;6.00;;;8.40;79.90;;;;;;5052890;28;20914;-80
2021/04/25 04:29:17;;;;;;;9.50;6.73;;;8.40;80.40;;;;;;5052291;28;20195;-81
2021/04/25 04:31:42;;;;;;;8.33;6.80;;;8.40;81.00;;;;;;5053120;28;20588;-80
2021/04/25 04:34:08;;;;;;;9.30;7.10;;;8.30;80.80;;;;;;5051933;28;20178;-80
2021/04/25 04:36:34;;;;;;;9.50;6.63;;;8.30;79.60;;;;;;5034999;28;20172;-80
2021/04/25 04:39:00;;;;;;;11.73;7.77;;;8.40;79.40;;;;;;5051893;28;20361;-80
2021/04/25 04:41:25;;;;;;;8.60;6.80;;;8.30;79.20;;;;;;5052891;28;20632;-80
2021/04/25 04:43:51;;;;;;;9.40;6.90;;;8.30;79.70;;;;;;5052555;28;20208;-80
2021/04/25 04:46:17;;;;;;;7.73;6.43;;;8.30;80.30;;;;;;5051699;28;20164;-80
2021/04/25 04:48:42;;;;;;;8.00;6.20;;;8.40;79.40;;;;;;5051981;28;20572;-80
2021/04/25 04:51:08;;;;;;;11.47;7.87;;;8.30;79.20;;;;;;5051421;28;20220;-80
2021/04/25 04:53:34;;;;;;;9.73;6.30;;;8.40;79.00;;;;;;5034441;28;20183;-80
2021/04/25 04:55:59;;;;;;;6.23;5.60;;;8.30;78.50;;;;;;5051501;28;20181;-80
2021/04/25 04:58:25;;;;;;;7.87;6.40;;;8.40;78.20;;;;;;5052367;28;20203;-80
2021/04/25 05:00:51;;;;;;;7.80;6.50;;;8.40;78.30;;;;;;5018029;28;20185;-80
2021/04/25 05:03:17;;;;;;;9.60;6.93;;;8.40;78.10;;;;;;5051480;28;20170;-80
2021/04/25 05:05:42;;;;;;;12.33;7.43;;;8.40;77.70;;;;;;5034696;28;20173;-80
2021/04/25 05:08:08;;;;;;;10.10;6.80;;;8.40;78.10;;;;;;5051426;28;20208;-80
2021/04/25 05:10:34;;;;;;;10.67;6.43;;;8.20;78.50;;;;;;5052177;28;20475;-80
2021/04/25 05:12:59;;;;;;;10.03;6.07;;;8.40;79.00;;;;;;5051610;28;20259;-79
2021/04/25 05:15:25;;;;;;;7.67;6.10;;;8.20;79.10;;;;;;5052138;28;20629;-80
2021/04/25 05:17:51;;;;;;;6.80;6.20;;;8.20;79.30;;;;;;5051905;28;20176;-79
2021/04/25 05:20:17;;;;;;;8.30;6.60;;;8.20;79.30;;;;;;5051235;28;20248;-80
2021/04/25 05:22:43;;;;;;;8.13;6.07;;;8.20;80.10;;;;;;5052086;28;20179;-80
2021/04/25 05:25:09;;;;;;;7.27;6.57;;;8.30;79.90;;;;;;5064903;28;20225;-79
2021/04/25 05:27:35;;;;;;;6.83;6.17;;;8.30;79.40;;;;;;5070430;28;20190;-80
2021/04/25 05:30:02;;;;;;;9.03;5.83;;;8.40;78.30;;;;;;5071353;28;20946;-79
2021/04/25 05:32:29;;;;;;;8.70;6.43;;;8.40;77.80;;;;;;5070406;28;20439;-80
2021/04/25 05:34:54;;;;;;;8.70;6.37;;;8.50;77.20;;;;;;5071914;28;20456;-80
2021/04/25 05:37:20;;;;;;;6.63;6.00;;;8.50;77.30;;;;;;5071164;28;20447;-80
2021/04/25 05:39:45;;;;;;;8.70;6.10;;;8.60;76.20;;;;;;5070712;28;20180;-80
2021/04/25 05:42:11;;;;;;;9.60;6.20;;;8.60;76.10;;;;;;5071374;28;20264;-80
2021/04/25 05:44:37;;;;;;;8.60;6.60;;;8.70;76.70;;;;;;5070883;28;20176;-80
2021/04/25 05:47:03;;;;;;;8.40;5.80;;;8.70;76.70;;;;;;5071059;28;20188;-79
2021/04/25 05:49:29;;;;;;;7.13;6.43;;;8.80;77.20;;;;;;5070339;28;20204;-79
2021/04/25 05:51:55;;;;;;;7.07;6.10;;;8.80;76.40;;;;;;5071806;28;20418;-80
2021/04/25 05:54:21;;;;;;;7.20;6.27;;;8.80;75.70;;;;;;5071527;28;20422;-79
2021/04/25 05:56:46;;;;;;;13.53;7.50;;;8.80;74.60;;;;;;5071830;28;20419;-79
2021/04/25 05:59:12;;;;;;;6.93;6.23;;;8.90;75.00;;;;;;5070536;28;20283;-80
2021/04/25 06:01:38;;;;;;;9.50;5.60;;;8.90;75.10;;;;;;5073550;28;20173;-79
2021/04/25 06:04:06;;;;;;;6.30;5.70;;;8.90;74.30;;;;;;5074731;28;20177;-79
2021/04/25 06:06:33;;;;;;;13.97;6.90;;;8.90;73.70;;;;;;5075491;28;20226;-79
2021/04/25 06:08:59;;;;;;;7.07;6.23;;;8.90;74.60;;;;;;5075346;28;20450;-79
2021/04/25 06:11:25;;;;;;;7.10;6.37;;;8.70;71.70;;;;;;5074923;28;20523;-79
2021/04/25 06:13:52;;;;;;;6.73;6.10;;;8.70;72.40;;;;;;5075396;28;20392;-78
2021/04/25 06:16:18;;;;;;;10.37;6.93;;;8.70;72.80;;;;;;5074525;28;20516;-79
2021/04/25 06:18:43;;;;;;;8.63;6.10;;;8.70;73.20;;;;;;5075632;28;20494;-79
2021/04/25 06:21:09;;;;;;;7.57;6.23;;;8.80;72.20;;;;;;5074593;28;20627;-79
2021/04/25 06:23:35;;;;;;;5.83;5.17;;;8.70;74.50;;;;;;5070438;28;20224;-80
2021/04/25 06:26:01;;;;;;;7.90;5.70;;;8.80;73.90;;;;;;5037260;28;20217;-80
2021/04/25 06:28:29;;;;;;;8.93;5.10;;;8.80;71.60;;;;;;5054538;28;20509;-80
2021/04/25 06:30:57;;;;;;;6.47;5.43;;;8.80;72.00;;;;;;5055158;28;20629;-79
2021/04/25 06:33:23;;;;;;;6.00;5.10;;;8.80;70.70;;;;;;5036508;28;20408;-79
2021/04/25 06:35:49;;;;;;;5.87;5.30;;;8.80;71.20;;;;;;5054913;28;20431;-80
2021/04/25 06:38:15;;;;;;;7.30;5.37;;;8.80;70.70;;;;;;5054150;28;20422;-79
2021/04/25 06:40:42;;;;;;;7.50;6.37;;;8.80;71.40;;;;;;5055024;28;20796;-80
2021/04/25 06:43:07;;;;;;;6.50;5.80;;;8.90;68.90;;;;;;5054033;28;20491;-80
2021/04/25 06:45:33;;;;;;;6.77;5.60;;;9.00;69.90;;;;;;5055104;28;20498;-80
2021/04/25 06:47:59;;;;;;;5.97;5.47;;;9.00;68.50;;;;;;5054973;28;20177;-80
2021/04/25 06:50:25;;;;;;;7.60;6.20;;;8.90;68.50;;;;;;5053844;28;20424;-81
2021/04/25 06:52:51;;;;;;;6.20;5.60;;;9.00;70.80;;;;;;5036848;28;20645;-80
2021/04/25 06:55:21;;;;;;;8.30;6.10;;;9.10;69.40;;;;;;5053847;28;20591;-80
2021/04/25 06:57:48;;;;;;;5.37;5.03;;;9.10;68.50;;;;;;5054572;28;20172;-80
2021/04/25 07:00:15;;;;;;;6.57;5.80;;;9.20;68.40;;;;;;5035835;28;20511;-80
2021/04/25 07:02:41;;;;;;;6.43;5.80;;;9.20;68.10;;;;;;5054846;28;20441;-80
2021/04/25 07:05:08;;;;;;;10.00;6.03;;;9.30;69.40;;;;;;5053496;28;20394;-79
2021/04/25 07:07:34;;;;;;;10.30;6.00;;;9.20;69.00;;;;;;5036879;28;20535;-84
2021/04/25 07:10:01;;;;;;;6.60;5.87;;;9.30;67.10;;;;;;5054250;28;20473;-81
2021/04/25 07:12:27;;;;;;;7.30;6.30;;;9.40;68.00;;;;;;5053308;28;20798;-79
2021/04/25 07:14:54;;;;;;;7.67;5.67;;;9.50;67.60;;;;;;5054250;28;20417;-79
2021/04/25 07:17:20;;;;;;;6.60;6.00;;;9.40;66.40;;;;;;5053457;28;20412;-79
2021/04/25 07:19:45;;;;;;;5.80;5.37;;;9.50;66.90;;;;;;5054289;28;20419;-79
2021/04/25 07:22:11;;;;;;;6.70;5.97;;;9.60;68.70;;;;;;5053258;28;20396;-80
2021/04/25 07:24:37;;;;;;;7.23;5.33;;;9.60;67.80;;;;;;5054167;28;20221;-80
2021/04/25 07:27:04;;;;;;;6.40;5.90;;;9.60;67.10;;;;;;5054325;28;20428;-81
2021/04/25 07:29:30;;;;;;;6.33;5.53;;;9.50;67.50;;;;;;5053674;28;20198;-80
2021/04/25 07:31:58;;;;;;;5.63;5.13;;;9.60;67.60;;;;;;5053999;28;20415;-81
2021/04/25 07:34:24;;;;;;;7.23;5.50;;;9.60;65.60;;;;;;5053363;28;20859;-81
2021/04/25 07:36:50;;;;;;;5.50;5.10;;;9.50;65.50;;;;;;5053748;28;20412;-81
2021/04/25 07:39:15;;;;;;;8.40;5.77;;;9.60;65.80;;;;;;5053395;28;20415;-80
2021/04/25 07:41:41;;;;;;;6.17;5.67;;;9.70;68.10;;;;;;5054070;28;20458;-81
2021/04/25 07:44:07;;;;;;;7.67;6.93;;;9.80;66.50;;;;;;5053152;28;20181;-80
2021/04/25 07:46:33;;;;;;;8.03;7.30;;;9.90;67.50;;;;;;5053996;28;20458;-81
2021/04/25 07:48:59;;;;;;;6.43;5.80;;;9.90;67.50;;;;;;5053581;28;20543;-82
2021/04/25 07:51:25;;;;;;;6.10;5.60;;;10.00;64.50;;;;;;5053272;28;20340;-81
2021/04/25 07:53:53;;;;;;;7.70;6.90;;;9.90;63.80;;;;;;5035799;28;20412;-81
2021/04/25 07:56:19;;;;;;;7.47;6.77;;;9.90;65.90;;;;;;5035563;28;20519;-80
2021/04/25 07:58:45;;;;;;;6.97;5.97;;;9.90;66.00;;;;;;5053702;28;20428;-81
2021/04/25 08:01:11;;;;;;;5.73;5.30;;;10.00;66.40;;;;;;5052498;28;20404;-80
2021/04/25 08:03:37;;;;;;;6.27;5.67;;;10.00;63.60;;;;;;5053339;28;20884;-81
2021/04/25 08:06:05;;;;;;;6.20;5.60;;;10.00;64.00;;;;;;5053135;28;20424;-80
2021/04/25 08:08:30;;;;;;;6.67;6.07;;;10.00;65.00;;;;;;5052583;28;20470;-80
2021/04/25 08:10:56;;;;;;;5.80;5.20;;;10.10;65.60;;;;;;5053175;28;20864;-81
2021/04/25 08:13:22;;;;;;;8.10;6.07;;;10.20;65.00;;;;;;5052354;28;20821;-81
2021/04/25 08:15:48;;;;;;;6.77;5.03;;;10.20;67.50;;;;;;5053079;28;20174;-76
2021/04/25 08:18:14;;;;;;;7.60;5.67;;;10.20;67.10;;;;;;5052506;28;20174;-76
2021/04/25 08:20:40;;;;;;;7.40;5.30;;;10.40;65.40;;;;;;5052833;28;20425;-82
2021/04/25 08:23:07;;;;;;;6.07;5.10;;;10.50;66.60;;;;;;5052397;28;20919;-79
2021/04/25 08:25:33;;;;;;;9.03;4.87;;;10.60;65.40;;;;;;5033990;28;20673;-83
2021/04/25 08:27:59;;;;;;;5.87;4.97;;;10.80;66.20;;;;;;5052809;28;20504;-82
2021/04/25 08:30:25;;;;;;;6.23;4.90;;;10.70;61.20;;;;;;5051566;28;20736;-81
2021/04/25 08:32:51;;;;;;;6.10;5.50;;;10.70;63.20;;;;;;5052815;28;20417;-82
2021/04/25 08:35:18;;;;;;;5.67;5.10;;;10.70;64.10;;;;;;5051898;28;20180;-81
2021/04/25 08:37:45;;;;;;;9.83;5.50;;;10.50;62.50;;;;;;5052730;28;20246;-81
2021/04/25 08:40:11;;;;;;;7.20;6.50;;;10.50;63.60;;;;;;5052210;28;20781;-78
2021/04/25 08:42:37;;;;;;;6.87;5.60;;;10.50;62.90;;;;;;5052516;28;20423;-81
2021/04/25 08:45:04;;;;;;;8.17;5.50;;;10.40;62.00;;;;;;5052361;28;20417;-81
2021/04/25 08:47:30;;;;;;;5.53;5.03;;;10.40;63.50;;;;;;5051795;28;20495;-82
2021/04/25 08:50:01;;;;;;;5.50;5.00;;;10.40;64.60;;;;;;5052598;28;20452;-78
2021/04/25 08:52:28;;;;;;;6.20;5.70;;;10.40;66.00;;;;;;5051878;28;20404;-80
2021/04/25 08:54:54;;;;;;;9.60;6.20;;;10.50;64.10;;;;;;5052686;28;20804;-80
2021/04/25 08:57:22;;;;;;;7.57;5.90;;;10.70;63.20;;;;;;5033529;28;20407;-80
2021/04/25 08:59:48;;;;;;;5.77;5.20;;;10.70;62.60;;;;;;5034895;28;20983;-80
2021/04/25 09:02:13;;;;;;;6.23;5.60;;;10.70;62.20;;;;;;5051535;28;20499;-79
2021/04/25 09:04:39;;;;;;;5.97;5.47;;;10.70;62.00;;;;;;5052640;28;20202;-79
2021/04/25 09:07:12;;;;;;;5.70;5.30;;;10.80;62.70;;;;;;5052166;28;20179;-80
2021/04/25 09:09:53;;;;;;;5.97;5.27;;;11.10;63.90;;;;;;5051965;28;20193;-80
2021/04/25 09:12:36;;;;;;;5.50;5.10;;;11.30;61.10;;;;;;5017105;28;20816;-80
2021/04/25 09:15:10;;;;;;;6.10;5.50;;;11.50;62.40;;;;;;5052457;28;20426;-82
2021/04/25 09:17:56;;;;;;;6.30;5.70;;;11.50;61.50;;;;;;5051622;28;20405;-80
2021/04/25 09:20:31;;;;;;;5.90;5.40;;;11.50;60.60;;;;;;5051238;28;20416;-79
2021/04/25 09:22:57;;;;;;;5.90;5.40;;;11.40;62.30;;;;;;5052068;28;20412;-79
2021/04/25 09:25:23;;;;;;;5.70;5.20;;;11.20;62.90;;;;;;5051392;28;20455;-76
2021/04/25 09:27:51;;;;;;;6.53;5.90;;;11.10;63.30;;;;;;5052047;28;20782;-80
2021/04/25 09:30:22;;;;;;;6.80;6.10;;;11.30;62.20;;;;;;5050895;28;20568;-80
2021/04/25 09:32:58;;;;;;;6.50;6.00;;;11.40;61.60;;;;;;5052190;28;20417;-79
2021/04/25 09:35:25;;;;;;;10.87;7.20;;;11.50;61.40;;;;;;5051710;28;20431;-80
2021/04/25 09:37:50;;;;;;;21.83;17.43;;;11.40;62.40;;;;;;5021832;28;20421;-80
2021/04/25 09:40:21;;;;;;;410.70;247.87;;;11.40;62.30;;;;;;5055345;28;20406;-80
2021/04/25 09:43:03;;;;;;;50.90;29.47;;;11.40;62.80;;;;;;5056023;28;20221;-80
2021/04/25 09:45:30;;;;;;;7.97;7.27;;;11.40;62.70;;;;;;5055237;28;20405;-81
2021/04/25 09:47:56;;;;;;;6.37;5.77;;;11.50;62.70;;;;;;5055605;28;20422;-80
2021/04/25 09:50:23;;;;;;;6.53;5.93;;;11.30;63.10;;;;;;5054958;28;20409;-79
2021/04/25 09:52:50;;;;;;;6.60;5.83;;;11.20;63.60;;;;;;5055635;28;20465;-79
2021/04/25 09:55:26;;;;;;;7.33;6.63;;;11.30;62.70;;;;;;5037396;28;20416;-83
2021/04/25 09:57:58;;;;;;;7.77;7.00;;;11.50;63.50;;;;;;5055712;28;20439;-76
2021/04/25 10:00:48;;;;;;;8.30;7.60;;;11.50;63.00;;;;;;5054705;28;20408;-76
2021/04/25 10:03:18;;;;;;;8.57;5.90;;;11.60;61.70;;;;;;5055269;28;20397;-75
2021/04/25 10:06:01;;;;;;;6.10;5.60;;;11.70;58.70;;;;;;5055181;28;20409;-76
2021/04/25 10:08:36;;;;;;;8.17;6.70;;;11.70;61.80;;;;;;5054431;28;20433;-76
2021/04/25 10:11:04;;;;;;;5.90;5.50;;;11.80;62.50;;;;;;5055476;28;20401;-75
2021/04/25 10:13:32;;;;;;;6.50;5.90;;;11.90;61.80;;;;;;5054563;28;20405;-76
2021/04/25 10:15:58;;;;;;;6.60;6.00;;;12.00;62.20;;;;;;5037618;28;20414;-76
2021/04/25 10:18:24;;;;;;;7.10;6.50;;;12.10;64.00;;;;;;5054498;28;20458;-76
2021/04/25 10:20:55;;;;;;;88.37;57.27;;;12.10;61.20;;;;;;5055247;28;20407;-75
2021/04/25 10:23:22;;;;;;;31.23;23.23;;;12.10;60.10;;;;;;5054355;28;20498;-79
2021/04/25 10:25:49;;;;;;;8.13;7.40;;;12.30;62.70;;;;;;5055515;28;20403;-80
2021/04/25 10:28:19;;;;;;;7.50;7.00;;;12.50;62.60;;;;;;5037182;28;20417;-77
2021/04/25 10:30:47;;;;;;;8.20;7.40;;;12.60;60.00;;;;;;5055469;28;20433;-80
2021/04/25 10:33:13;;;;;;;6.70;6.10;;;12.60;59.70;;;;;;5054833;28;20495;-79
2021/04/25 10:35:55;;;;;;;7.47;5.70;;;12.60;58.10;;;;;;5053905;28;20422;-82
2021/04/25 10:38:36;;;;;;;6.43;5.90;;;12.70;57.70;;;;;;5036538;28;20450;-78
2021/04/25 10:41:20;;;;;;;6.87;6.33;;;12.70;59.70;;;;;;5054915;28;20411;-78
2021/04/25 10:44:15;;;;;;;6.60;6.10;;;12.80;61.60;;;;;;5054935;28;20828;-79
2021/04/25 10:46:52;;;;;;;7.47;6.27;;;12.90;59.90;;;;;;5032360;28;20420;-78
2021/04/25 10:49:32;;;;;;;6.60;6.10;;;12.90;58.60;;;;;;5054227;28;20448;-77
2021/04/25 10:52:24;;;;;;;7.87;7.27;;;13.00;58.70;;;;;;5054824;28;20818;-78
2021/04/25 10:55:33;;;;;;;6.00;5.60;;;13.10;59.80;;;;;;5054287;28;20466;-78
2021/04/25 10:58:07;;;;;;;6.80;6.30;;;13.30;59.70;;;;;;5054656;28;20400;-85
2021/04/25 11:00:34;;;;;;;8.33;7.60;;;13.40;58.30;;;;;;5054049;28;20402;-78
2021/04/25 11:03:11;;;;;;;7.17;6.47;;;13.60;59.80;;;;;;5054590;28;20603;-78
2021/04/25 11:05:42;;;;;;;7.30;6.63;;;13.60;58.80;;;;;;5053736;28;20401;-78
2021/04/25 11:08:34;;;;;;;6.57;6.17;;;13.90;60.20;;;;;;5054177;28;20877;-79
2021/04/25 11:11:07;;;;;;;7.33;6.73;;;14.20;57.50;;;;;;5054156;28;20410;-75
2021/04/25 11:16:15;;;;;;;30.93;23.60;;;14.30;55.10;;;;;;5053942;28;20412;-78
2021/04/25 11:19:04;;;;;;;91.82;57.45;;;14.40;59.00;;;;;;5053176;28;21213;-77
2021/04/25 11:21:37;;;;;;;10.67;7.30;;;14.30;59.70;;;;;;5053190;28;20200;-78
2021/04/25 11:24:06;;;;;;;6.90;6.40;;;14.30;58.60;;;;;;5054300;28;20951;-87
2021/04/25 11:26:38;;;;;;;6.93;6.40;;;14.30;58.90;;;;;;5053062;28;20826;-82
2021/04/25 11:29:21;;;;;;;7.47;6.70;;;14.00;56.70;;;;;;5053835;28;20507;-84
2021/04/25 11:34:25;;;;;;;7.10;6.60;;;14.20;57.30;;;;;;5053823;28;20401;-77
2021/04/25 11:36:51;;;;;;;6.57;5.87;;;14.50;57.70;;;;;;5053818;28;20446;-77
2021/04/25 11:39:25;;;;;;;6.23;5.57;;;14.60;58.40;;;;;;5053825;28;20906;-77
2021/04/25 11:41:51;;;;;;;7.50;6.97;;;14.80;56.20;;;;;;5053910;28;20215;-78
2021/04/25 11:44:32;;;;;;;7.73;7.13;;;14.80;54.80;;;;;;5053670;28;20422;-77
2021/04/25 11:46:59;;;;;;;7.20;6.60;;;14.70;55.60;;;;;;5053692;28;20934;-77
2021/04/25 11:49:38;;;;;;;8.93;6.90;;;14.80;54.30;;;;;;5034928;28;20457;-78
2021/04/25 11:52:11;;;;;;;6.83;5.93;;;15.00;57.00;;;;;;5053653;28;20408;-76
2021/04/25 11:54:38;;;;;;;31.53;24.50;;;15.20;55.10;;;;;;5052950;28;20416;-76
2021/04/25 11:57:08;;;;;;;10.37;9.20;;;15.40;55.00;;;;;;5053489;28;20412;-77
2021/04/25 11:59:50;;;;;;;6.90;6.30;;;15.60;52.60;;;;;;5050420;28;20515;-74
2021/04/25 12:02:16;;;;;;;6.37;5.87;;;15.80;57.60;;;;;;5053486;28;20535;-74
2021/04/25 12:04:48;;;;;;;8.40;7.17;;;16.30;59.80;;;;;;5052579;28;20407;-74
2021/04/25 12:07:37;;;;;;;6.50;5.97;;;16.80;60.80;;;;;;5035464;28;20602;-75
2021/04/25 12:10:10;;;;;;;6.07;5.57;;;17.00;56.10;;;;;;5053191;28;20432;-74
2021/04/25 12:12:52;;;;;;;5.90;5.50;;;17.10;59.50;;;;;;5052558;28;20420;-75
2021/04/25 12:15:18;;;;;;;6.77;6.17;;;17.30;54.70;;;;;;5052875;28;20380;-75
2021/04/25 12:17:51;;;;;;;6.00;5.60;;;17.60;56.00;;;;;;5052252;28;20435;-75
2021/04/25 12:20:17;;;;;;;6.37;5.63;;;17.70;53.80;;;;;;5053024;28;20626;-74
2021/04/25 12:22:43;;;;;;;6.43;5.83;;;17.80;54.70;;;;;;5052102;28;20470;-75
2021/04/25 12:25:08;;;;;;;6.07;5.60;;;18.00;55.30;;;;;;5053104;28;20224;-75
2021/04/25 12:27:34;;;;;;;5.33;4.80;;;18.00;61.30;;;;;;5052357;28;20182;-75
2021/04/25 12:30:00;;;;;;;6.50;5.87;;;18.30;58.00;;;;;;5052800;28;20205;-75
2021/04/25 12:32:28;;;;;;;6.77;6.17;;;18.60;57.00;;;;;;5052063;28;20189;-76
2021/04/25 12:35:03;;;;;;;7.27;6.67;;;18.90;62.50;;;;;;5052710;28;20405;-75
2021/04/25 12:37:42;;;;;;;6.97;6.37;;;19.00;54.70;;;;;;5045453;28;20428;-75
2021/04/25 12:40:32;;;;;;;6.83;5.83;;;19.20;59.40;;;;;;5052917;28;20433;-75
2021/04/25 12:43:25;;;;;;;7.00;6.30;;;19.30;59.90;;;;;;5051765;28;20804;-75
2021/04/25 12:45:51;;;;;;;7.33;6.73;;;19.50;57.70;;;;;;5048777;28;20416;-75
2021/04/25 12:48:30;;;;;;;6.43;6.00;;;19.60;50.80;;;;;;5034664;28;20979;-75
2021/04/25 12:51:16;;;;;;;5.90;5.40;;;19.60;55.00;;;;;;5052724;28;20175;-76
2021/04/25 12:56:43;;;;;;;7.00;6.60;;;18.60;50.40;;;;;;5051674;28;20401;-78
2021/04/25 12:59:12;;;;;;;7.80;6.27;;;18.10;51.20;;;;;;5052453;28;20431;-80
2021/04/25 13:01:41;;;;;;;7.53;6.90;;;18.10;52.30;;;;;;5051756;28;20765;-75
2021/04/25 13:04:30;;;;;;;7.40;6.70;;;18.10;51.40;;;;;;5052012;28;20427;-75
2021/04/25 13:07:19;;;;;;;7.20;6.67;;;18.20;52.30;;;;;;5052230;28;20492;-77